Terminal Aerodrome Forecast
Issued by NWS La Crosse, WI

Current Version | Previous Version | Text Only | Print | Product List | Glossary On
Versions: 1 2 3 4 5 6 7 8 9 10 11 12 13 14 15 16 17 18 19 20 21 22
000
FTUS43 KARX 250520
TAFRST
TAF
KRST 250520Z 2506/2606 13011KT P6SM VCSH OVC008
      TEMPO 2506/2508 5SM SHRA BR
     FM250800 16011KT P6SM VCSH FEW008 OVC100
      TEMPO 2508/2512 6SM SHRA BR OVC030
     FM251300 20013KT P6SM BKN090
     FM251600 23013KT P6SM SCT200
     FM251900 27013G24KT P6SM BKN190
     FM252200 28013G25KT P6SM OVC035=

USA.gov is the U.S. government's official web portal to all federal, state and local government web resources and services.